Time;durP1;ratioP1;P1;durP2;ratioP2;P2;SDS_P1;SDS_P2;PMS_P1;PMS_P2;Temp;Humidity;BMP_temperature;BMP_pressure;BME280_temperature;BME280_humidity;BME280_pressure;Samples;Min_cycle;Max_cycle;Signal;HPM_P1;HPM_P2
2024/03/31 00:00:55;;;;;;;33.28;7.10;;;;;;;16.27;94.15;99332.88;5076822;28;20051;-77
2024/03/31 00:03:59;;;;;;;39.15;5.53;;;;;;;16.28;93.51;99322.88;5076541;28;20055;-77
2024/03/31 00:07:03;;;;;;;31.35;5.20;;;;;;;16.35;92.81;99323.78;5076805;28;20383;-77
2024/03/31 00:10:09;;;;;;;23.98;5.60;;;;;;;16.10;93.89;99320.66;5076756;28;20059;-78
2024/03/31 00:13:14;;;;;;;24.52;4.28;;;;;;;15.97;94.47;99317.81;5076710;28;20051;-79
2024/03/31 00:16:19;;;;;;;23.75;5.95;;;;;;;16.10;93.69;99320.66;5064416;28;20060;-78
2024/03/31 00:19:23;;;;;;;21.75;4.72;;;;;;;16.26;92.69;99343.91;5076290;28;20051;-75
2024/03/31 00:22:28;;;;;;;27.55;6.95;;;;;;;16.17;92.56;99348.63;5064128;28;20051;-75
2024/03/31 00:25:34;;;;;;;22.10;4.97;;;;;;;15.85;92.51;99341.00;5076383;28;20138;-78
2024/03/31 00:28:38;;;;;;;17.85;2.80;;;;;;;16.03;91.79;99341.41;5076496;28;20060;-78
2024/03/31 00:31:44;;;;;;;29.42;4.05;;;;;;;15.82;92.58;99333.31;5052671;28;20384;-77
2024/03/31 00:34:48;;;;;;;17.55;3.60;;;;;;;15.86;92.10;99337.28;5063990;28;20048;-78
2024/03/31 00:37:52;;;;;;;21.55;4.13;;;;;;;15.89;92.37;99328.78;5064012;28;20040;-78
2024/03/31 00:40:56;;;;;;;26.92;5.55;;;;;;;15.95;92.96;99341.53;5063790;28;20494;-78
2024/03/31 00:44:03;;;;;;;26.05;4.10;;;;;;;16.10;91.46;99342.31;5076190;28;20383;-77
2024/03/31 00:47:08;;;;;;;26.38;4.70;;;;;;;15.91;92.97;99337.56;5063816;28;20056;-78
2024/03/31 00:50:13;;;;;;;15.95;3.78;;;;;;;15.81;93.49;99337.03;5063577;28;20055;-78
2024/03/31 00:53:17;;;;;;;22.60;4.55;;;;;;;15.96;92.67;99324.28;5063706;28;20048;-77
2024/03/31 00:56:21;;;;;;;22.52;4.80;;;;;;;16.00;92.37;99328.25;5054648;28;20056;-79
2024/03/31 00:59:25;;;;;;;18.27;4.45;;;;;;;15.87;93.35;99346.25;5055174;28;20147;-77
2024/03/31 01:02:31;;;;;;;24.05;4.60;;;;;;;16.08;92.45;99344.38;5055022;28;20047;-78
2024/03/31 01:05:36;;;;;;;24.95;4.22;;;;;;;15.88;93.36;99327.09;5055740;28;20060;-78
2024/03/31 01:08:40;;;;;;;24.98;5.05;;;;;;;15.79;93.95;99330.97;5055642;28;20055;-78
2024/03/31 01:11:45;;;;;;;29.92;5.07;;;;;;;15.78;93.97;99342.81;5054878;28;20119;-77
2024/03/31 01:14:50;;;;;;;23.73;5.20;;;;;;;15.83;93.86;99344.94;5055624;28;20124;-76
2024/03/31 01:17:55;;;;;;;33.72;6.35;;;;;;;15.85;94.06;99351.84;5054667;28;20387;-78
2024/03/31 01:21:00;;;;;;;25.45;5.57;;;;;;;16.07;93.15;99342.69;5054498;28;20076;-77
2024/03/31 01:24:06;;;;;;;22.13;5.53;;;;;;;16.10;93.57;99342.31;5054617;28;20052;-76
2024/03/31 01:27:11;;;;;;;47.47;7.68;;;;;;;15.74;95.56;99340.69;5054424;28;20052;-78
2024/03/31 01:30:15;;;;;;;51.30;8.85;;;;;;;15.87;95.29;99357.94;5054503;28;20055;-78
2024/03/31 01:33:19;;;;;;;45.80;8.93;;;;;;;15.72;95.83;99365.25;5055532;28;20063;-77
2024/03/31 01:36:24;;;;;;;46.03;6.85;;;;;;;15.96;95.02;99358.63;5043097;28;20060;-78
2024/03/31 01:39:29;;;;;;;45.85;7.90;;;;;;;16.20;93.65;99375.31;5054398;28;20048;-77
2024/03/31 01:42:33;;;;;;;39.95;6.97;;;;;;;16.22;93.97;99372.41;5054566;28;20055;-79
2024/03/31 01:45:38;;;;;;;45.00;8.27;;;;;;;16.24;94.17;99370.34;5042866;28;20056;-78
2024/03/31 01:48:42;;;;;;;39.33;8.82;;;;;;;16.15;94.65;99372.34;5054399;28;20396;-76
2024/03/31 01:51:46;;;;;;;29.80;7.20;;;;;;;16.10;94.84;99347.72;5054145;28;20067;-77
2024/03/31 01:54:50;;;;;;;41.33;8.80;;;;;;;16.08;94.76;99362.47;5055655;28;20048;-77
2024/03/31 01:57:55;;;;;;;32.83;8.52;;;;;;;16.14;94.94;99373.41;5062701;28;20059;-76
2024/03/31 02:00:59;;;;;;;29.85;7.70;;;;;;;16.26;93.79;99379.13;5062284;28;20051;-77
2024/03/31 02:04:08;;;;;;;32.00;8.55;;;;;;;15.97;95.72;99371.94;5062388;28;20047;-78
2024/03/31 02:07:12;;;;;;;27.25;8.45;;;;;;;15.40;98.02;99366.53;5062567;28;20419;-79
2024/03/31 02:10:16;;;;;;;32.13;9.35;;;;;;;15.54;98.86;99367.53;5062344;28;20166;-78
2024/03/31 02:13:21;;;;;;;26.92;8.50;;;;;;;15.92;96.73;99355.47;5062111;28;20047;-77
2024/03/31 02:16:26;;;;;;;25.63;8.23;;;;;;;15.90;96.15;99357.50;5061954;28;20052;-78
2024/03/31 02:19:31;;;;;;;25.90;8.02;;;;;;;15.69;96.63;99359.38;5074337;28;20388;-78
2024/03/31 02:22:35;;;;;;;33.70;8.93;;;;;;;15.61;97.09;99346.81;5061994;28;20060;-78
2024/03/31 02:25:39;;;;;;;24.08;8.43;;;;;;;15.75;97.18;99342.38;5074307;28;20040;-78
2024/03/31 02:28:44;;;;;;;29.42;8.73;;;;;;;15.89;96.22;99355.84;5074265;28;20071;-78
2024/03/31 02:31:48;;;;;;;26.02;8.00;;;;;;;15.85;96.17;99365.38;5061874;28;20055;-76
2024/03/31 02:34:52;;;;;;;19.35;7.90;;;;;;;15.80;96.72;99367.81;5074041;28;20123;-78
2024/03/31 02:37:59;;;;;;;20.10;7.57;;;;;;;15.73;96.71;99364.22;5061766;28;20056;-78
2024/03/31 02:41:06;;;;;;;20.50;8.95;;;;;;;15.59;97.28;99368.66;5061631;28;20055;-79
2024/03/31 02:44:11;;;;;;;34.03;8.82;;;;;;;15.56;98.08;99365.47;5061462;28;20063;-77
2024/03/31 02:47:15;;;;;;;28.83;8.13;;;;;;;15.36;98.60;99359.78;5074013;28;20387;-78
2024/03/31 02:50:19;;;;;;;19.17;8.10;;;;;;;15.34;97.88;99350.19;5050278;28;20071;-76
2024/03/31 02:53:24;;;;;;;18.13;8.38;;;;;;;15.43;97.83;99360.72;5061455;28;20049;-77
2024/03/31 02:56:28;;;;;;;20.52;10.00;;;;;;;15.09;98.83;99375.84;5052298;28;20056;-78
2024/03/31 02:59:33;;;;;;;21.77;8.27;;;;;;;14.92;100.00;99378.75;5052977;28;20052;-78
2024/03/31 03:02:41;;;;;;;24.92;8.93;;;;;;;14.80;99.16;99380.25;5052860;28;20060;-78
2024/03/31 03:05:53;;;;;;;23.30;8.07;;;;;;;15.12;98.51;99372.78;5052975;28;20048;-77
2024/03/31 03:08:58;;;;;;;23.30;7.47;;;;;;;15.13;97.53;99359.09;5052807;28;20047;-78
2024/03/31 03:12:02;;;;;;;23.55;6.20;;;;;;;14.84;98.09;99373.44;5053535;28;20048;-78
2024/03/31 03:15:07;;;;;;;27.50;6.47;;;;;;;14.34;99.57;99370.59;5051684;28;20063;-78
2024/03/31 03:18:18;;;;;;;18.20;5.20;;;;;;;14.37;99.01;99369.38;5053462;28;20116;-78
2024/03/31 03:21:26;;;;;;;14.00;4.28;;;;;;;14.63;98.86;99367.94;5052520;28;20179;-77
2024/03/31 03:24:30;;;;;;;12.80;4.18;;;;;;;14.90;97.59;99367.31;5052583;28;20052;-77
2024/03/31 03:27:35;;;;;;;11.68;2.97;;;;;;;14.97;96.84;99376.34;5053333;28;20052;-76
2024/03/31 03:30:39;;;;;;;14.18;3.63;;;;;;;14.88;95.98;99377.47;5052364;28;20044;-77
2024/03/31 03:33:47;;;;;;;10.98;3.13;;;;;;;14.98;95.25;99388.84;5052415;28;20048;-78
2024/03/31 03:36:51;;;;;;;10.82;2.92;;;;;;;14.97;95.13;99384.44;5052333;28;20396;-77
2024/03/31 03:39:55;;;;;;;11.30;2.70;;;;;;;15.05;94.99;99386.22;5052299;28;20056;-77
2024/03/31 03:43:01;;;;;;;5.40;2.53;;;;;;;14.91;95.90;99387.88;5052449;28;20052;-78
2024/03/31 03:46:05;;;;;;;10.20;2.45;;;;;;;14.96;95.57;99403.56;5040959;28;20075;-78
2024/03/31 03:49:12;;;;;;;9.30;2.60;;;;;;;14.77;94.70;99390.56;5052332;28;20388;-78
2024/03/31 03:52:20;;;;;;;9.80;2.60;;;;;;;14.96;94.07;99368.44;5052038;28;20107;-77
2024/03/31 03:55:24;;;;;;;9.85;2.97;;;;;;;14.56;93.80;99361.59;5057014;28;20059;-77
2024/03/31 03:58:29;;;;;;;12.45;2.65;;;;;;;14.55;94.52;99351.81;5049237;28;20052;-77
2024/03/31 04:01:35;;;;;;;9.02;1.95;;;;;;;14.66;94.25;99354.06;5060694;28;20075;-77
2024/03/31 04:04:40;;;;;;;11.13;2.60;;;;;;;14.59;95.00;99365.78;5060637;28;20052;-78
2024/03/31 04:07:46;;;;;;;13.57;3.45;;;;;;;14.79;94.16;99361.50;5060755;28;20056;-78
2024/03/31 04:10:51;;;;;;;14.25;2.47;;;;;;;14.45;95.16;99367.44;5060731;28;20069;-77
2024/03/31 04:13:55;;;;;;;10.32;3.22;;;;;;;14.47;95.28;99368.09;5060639;28;20047;-77
2024/03/31 04:17:00;;;;;;;14.60;2.47;;;;;;;14.39;94.97;99378.13;5031028;28;20068;-77
2024/03/31 04:20:05;;;;;;;17.15;2.63;;;;;;;14.25;95.44;99385.13;5019329;28;20444;-77
2024/03/31 04:23:10;;;;;;;12.80;2.78;;;;;;;14.39;95.15;99384.38;5019449;28;20048;-77
2024/03/31 04:26:14;;;;;;;15.20;3.08;;;;;;;14.41;95.19;99384.19;5010928;28;20048;-77
2024/03/31 04:29:19;;;;;;;15.43;3.25;;;;;;;14.34;94.44;99384.09;5023098;28;20045;-77
2024/03/31 04:32:24;;;;;;;13.10;2.65;;;;;;;14.50;94.28;99367.72;5034325;28;20053;-78
2024/03/31 04:35:34;;;;;;;14.15;2.15;;;;;;;14.50;94.00;99383.94;5022814;28;20076;-77
2024/03/31 04:38:38;;;;;;;11.88;2.83;;;;;;;14.49;94.48;99386.81;4983777;28;20045;-77
2024/03/31 04:41:43;;;;;;;13.40;2.22;;;;;;;14.47;94.89;99394.28;4983719;28;20054;-77
2024/03/31 04:44:50;;;;;;;15.85;3.13;;;;;;;14.37;95.05;99390.97;4983668;28;20128;-77
2024/03/31 04:47:55;;;;;;;6.00;2.25;;;;;;;14.38;94.60;99384.53;5021346;28;20052;-78
2024/03/31 04:51:06;;;;;;;10.07;2.22;;;;;;;14.38;95.02;99362.94;5022942;28;20149;-78
2024/03/31 04:54:11;;;;;;;7.18;1.63;;;;;;;14.51;94.46;99350.50;5022643;28;20056;-77
2024/03/31 04:57:16;;;;;;;14.93;2.90;;;;;;;14.55;94.41;99337.47;5033117;28;20133;-77
2024/03/31 05:00:20;;;;;;;10.25;2.00;;;;;;;14.47;94.14;99335.69;5022250;28;20061;-77
2024/03/31 05:03:26;;;;;;;10.38;1.77;;;;;;;14.46;93.97;99325.91;5022523;28;20149;-78
2024/03/31 05:06:30;;;;;;;7.65;2.10;;;;;;;14.47;94.19;99335.69;5011153;28;20472;-77
2024/03/31 05:09:35;;;;;;;10.25;1.95;;;;;;;14.58;93.55;99318.19;5042619;28;20067;-77
2024/03/31 05:12:39;;;;;;;10.43;2.50;;;;;;;14.50;93.31;99304.78;5054861;28;20486;-78
2024/03/31 05:15:44;;;;;;;9.90;2.33;;;;;;;14.55;93.17;99313.16;5054794;28;20056;-77
2024/03/31 05:18:51;;;;;;;7.07;2.97;;;;;;;14.42;93.60;99321.09;5054700;28;20048;-78
2024/03/31 05:21:57;;;;;;;16.33;2.40;;;;;;;14.56;93.72;99339.16;5054492;28;20059;-78
2024/03/31 05:25:02;;;;;;;14.05;2.97;;;;;;;14.54;93.80;99343.91;5054623;28;20360;-78
2024/03/31 05:28:07;;;;;;;11.95;2.88;;;;;;;14.67;93.39;99336.81;5054517;28;20056;-78
2024/03/31 05:31:13;;;;;;;8.75;1.95;;;;;;;14.76;93.64;99332.19;5054313;28;20052;-77
2024/03/31 05:34:30;;;;;;;8.07;2.17;;;;;;;14.88;93.54;99339.63;5055160;28;20048;-78
2024/03/31 05:37:35;;;;;;;10.48;2.50;;;;;;;14.89;93.62;99351.25;5053282;28;20044;-78
2024/03/31 05:40:43;;;;;;;10.15;2.80;;;;;;;14.81;94.28;99360.28;5054351;28;20060;-77
2024/03/31 05:43:48;;;;;;;7.45;2.17;;;;;;;15.05;93.61;99382.66;5054146;28;20496;-78
2024/03/31 05:46:52;;;;;;;9.07;2.28;;;;;;;15.23;92.58;99373.16;5054029;28;20048;-77
2024/03/31 05:49:57;;;;;;;8.30;2.50;;;;;;;15.19;92.54;99368.28;5053950;28;20048;-77
2024/03/31 05:53:02;;;;;;;12.00;2.90;;;;;;;15.06;92.66;99374.38;5053942;28;20055;-77
2024/03/31 05:56:07;;;;;;;7.68;2.47;;;;;;;15.17;92.15;99375.75;5061350;28;20147;-77
2024/03/31 05:59:11;;;;;;;5.72;2.22;;;;;;;15.22;91.59;99378.75;5062521;28;20495;-77
2024/03/31 06:02:15;;;;;;;9.40;2.75;;;;;;;15.05;92.04;99377.25;5050689;28;20055;-77
2024/03/31 06:05:20;;;;;;;15.20;3.10;;;;;;;14.75;92.59;99371.00;5050670;28;20071;-77
2024/03/31 06:08:25;;;;;;;12.80;1.88;;;;;;;14.76;91.56;99351.09;5062219;28;20051;-77
2024/03/31 06:11:33;;;;;;;12.60;2.97;;;;;;;14.79;91.33;99343.44;5061964;28;20055;-78
2024/03/31 06:14:38;;;;;;;10.70;1.90;;;;;;;14.93;90.80;99344.47;5062239;28;20051;-77
2024/03/31 06:17:43;;;;;;;6.93;1.75;;;;;;;15.13;90.70;99334.78;5061930;28;20071;-77
2024/03/31 06:20:49;;;;;;;12.88;2.20;;;;;;;14.92;91.43;99365.25;5061768;28;20059;-77
2024/03/31 06:23:53;;;;;;;8.75;3.22;;;;;;;14.86;93.25;99351.66;5061809;28;20393;-77
2024/03/31 06:26:58;;;;;;;11.30;2.97;;;;;;;15.13;91.71;99333.94;5061852;28;20052;-77
2024/03/31 06:30:03;;;;;;;12.75;2.72;;;;;;;15.22;91.70;99338.19;5061986;28;20402;-77
2024/03/31 06:33:11;;;;;;;20.50;4.20;;;;;;;15.16;92.68;99333.56;5062096;28;20048;-78
2024/03/31 06:36:15;;;;;;;24.65;4.70;;;;;;;15.30;93.28;99324.56;5050264;28;20071;-77
2024/03/31 06:39:19;;;;;;;23.02;5.53;;;;;;;15.36;92.26;99329.19;5061279;28;20051;-77
2024/03/31 06:42:24;;;;;;;27.15;5.55;;;;;;;15.19;93.23;99333.16;5061508;28;20155;-77
2024/03/31 06:45:32;;;;;;;29.65;5.93;;;;;;;15.18;93.54;99336.91;5061174;28;20047;-77
2024/03/31 06:48:36;;;;;;;39.47;6.35;;;;;;;15.38;93.74;99335.28;5061171;28;20051;-78
2024/03/31 06:51:41;;;;;;;43.28;7.78;;;;;;;15.61;93.02;99339.53;5061339;28;20071;-77
2024/03/31 06:54:45;;;;;;;51.20;7.40;;;;;;;15.41;93.86;99335.72;5061276;28;20051;-77
2024/03/31 06:57:49;;;;;;;52.45;9.43;;;;;;;15.28;94.72;99321.22;5049933;28;20150;-79
2024/03/31 07:00:57;;;;;;;43.58;9.27;;;;;;;15.26;95.44;99315.16;5061042;28;20403;-77
2024/03/31 07:04:03;;;;;;;71.30;12.00;;;;;;;15.00;97.13;99318.38;5061157;28;20047;-78
2024/03/31 07:07:08;;;;;;;57.30;8.07;;;;;;;15.15;96.67;99305.69;5060941;28;20047;-77
2024/03/31 07:10:13;;;;;;;62.17;10.88;;;;;;;15.35;96.45;99305.91;5061148;28;20039;-77
2024/03/31 07:13:18;;;;;;;51.63;11.55;;;;;;;15.49;96.12;99300.50;5060759;28;20052;-77
2024/03/31 07:16:22;;;;;;;78.72;13.30;;;;;;;15.43;97.62;99312.03;5061019;28;20047;-77
2024/03/31 07:19:28;;;;;;;73.80;12.57;;;;;;;15.05;99.30;99324.06;5049788;28;20060;-78
2024/03/31 07:22:34;;;;;;;65.63;12.48;;;;;;;15.13;99.47;99331.22;5061001;28;20055;-78
2024/03/31 07:25:39;;;;;;;59.25;12.23;;;;;;;15.16;99.71;99341.66;5060764;28;20419;-78
2024/03/31 07:28:44;;;;;;;61.00;12.00;;;;;;;14.83;100.00;99352.03;5073333;28;20051;-77
2024/03/31 07:31:49;;;;;;;63.63;13.73;;;;;;;15.01;100.00;99340.84;5060779;28;20475;-77
2024/03/31 07:34:54;;;;;;;47.80;11.57;;;;;;;15.10;100.00;99353.22;5060931;28;20037;-79
2024/03/31 07:37:58;;;;;;;66.20;13.70;;;;;;;15.01;100.00;99343.53;5060953;28;20041;-79
2024/03/31 07:41:03;;;;;;;56.58;13.95;;;;;;;15.26;100.00;99342.19;5060860;28;20048;-78
2024/03/31 07:44:07;;;;;;;57.00;12.27;;;;;;;15.51;100.00;99352.53;5073247;28;20048;-78
2024/03/31 07:47:12;;;;;;;50.28;12.90;;;;;;;15.61;100.00;99358.47;5073175;28;20363;-76
2024/03/31 07:50:17;;;;;;;47.05;12.45;;;;;;;15.59;100.00;99351.56;5073071;28;20045;-78
2024/03/31 07:53:22;;;;;;;50.50;12.25;;;;;;;15.53;100.00;99349.63;5073090;28;20044;-78
2024/03/31 07:56:26;;;;;;;51.28;11.85;;;;;;;15.75;100.00;99335.09;5051686;28;20404;-78
2024/03/31 07:59:30;;;;;;;44.75;12.45;;;;;;;15.55;100.00;99325.94;5052201;28;20376;-78
2024/03/31 08:02:35;;;;;;;43.70;10.93;;;;;;;15.78;100.00;99323.88;5056935;28;20049;-77
2024/03/31 08:05:41;;;;;;;39.78;11.70;;;;;;;15.78;99.72;99332.00;5056870;28;20392;-78
2024/03/31 08:08:48;;;;;;;44.42;13.25;;;;;;;15.37;100.00;99318.22;5056782;28;20056;-77
2024/03/31 08:11:53;;;;;;;37.60;10.23;;;;;;;15.41;100.00;99310.53;5056781;28;20045;-78
2024/03/31 08:14:58;;;;;;;39.90;9.43;;;;;;;15.48;100.00;99308.81;5056646;28;20360;-77
2024/03/31 08:18:02;;;;;;;42.83;11.85;;;;;;;15.63;100.00;99307.72;5056632;28;20159;-78
2024/03/31 08:21:07;;;;;;;38.72;9.57;;;;;;;15.75;100.00;99299.09;5056463;28;20395;-78
2024/03/31 08:24:11;;;;;;;39.28;10.27;;;;;;;15.97;99.51;99301.56;5055491;28;20048;-80
2024/03/31 08:27:15;;;;;;;42.22;10.57;;;;;;;16.08;98.13;99300.22;5056470;28;20064;-76
2024/03/31 08:30:20;;;;;;;43.15;12.48;;;;;;;15.94;97.78;99299.28;5056381;28;20052;-78
2024/03/31 08:33:24;;;;;;;46.35;11.02;;;;;;;16.25;98.55;99293.47;5056319;28;20052;-78
2024/03/31 08:36:29;;;;;;;45.05;12.52;;;;;;;16.46;97.58;99298.03;5055518;28;20048;-77
2024/03/31 08:39:33;;;;;;;44.78;12.50;;;;;;;16.00;98.00;99320.13;5055996;28;20040;-78
2024/03/31 08:42:45;;;;;;;39.85;13.55;;;;;;;16.23;97.51;99319.94;5056052;28;20056;-76
2024/03/31 08:45:50;;;;;;;49.38;13.25;;;;;;;16.23;96.91;99320.78;5056146;28;20052;-77
2024/03/31 08:48:55;;;;;;;36.47;10.90;;;;;;;16.43;97.65;99336.34;5056142;28;20507;-77
2024/03/31 08:51:59;;;;;;;33.83;11.18;;;;;;;16.53;96.59;99309.75;5055481;28;20052;-77
2024/03/31 08:55:04;;;;;;;44.78;13.02;;;;;;;16.56;94.58;99337.31;5056895;28;20044;-77
2024/03/31 08:58:09;;;;;;;37.05;12.43;;;;;;;16.09;97.95;99350.63;5055940;28;20508;-77
2024/03/31 09:01:16;;;;;;;35.60;12.65;;;;;;;16.71;94.66;99319.03;5054798;28;20043;-78
2024/03/31 09:04:21;;;;;;;41.30;11.23;;;;;;;16.73;94.17;99322.41;5056064;28;20056;-76
2024/03/31 09:07:26;;;;;;;33.95;11.57;;;;;;;16.38;96.24;99338.78;5055877;28;20483;-77
2024/03/31 09:10:31;;;;;;;38.70;10.77;;;;;;;16.71;94.98;99339.91;5055900;28;20063;-78
2024/03/31 09:13:36;;;;;;;47.33;12.48;;;;;;;16.86;94.43;99329.78;5055993;28;20491;-76
2024/03/31 09:16:48;;;;;;;63.63;21.08;;;;;;;16.56;95.09;99361.69;5054861;28;20380;-78
2024/03/31 09:19:53;;;;;;;42.42;13.88;;;;;;;16.84;93.99;99372.50;5055642;28;20056;-78
2024/03/31 09:22:58;;;;;;;38.80;13.82;;;;;;;16.98;93.37;99382.41;5043438;28;20491;-78
2024/03/31 09:26:04;;;;;;;31.77;13.98;;;;;;;16.97;92.95;99378.00;5055713;28;20048;-77
2024/03/31 09:29:09;;;;;;;28.65;12.35;;;;;;;16.93;93.83;99382.19;5054562;28;20055;-78
2024/03/31 09:32:16;;;;;;;34.17;12.20;;;;;;;17.14;93.38;99401.06;5055289;28;20071;-77
2024/03/31 09:35:24;;;;;;;33.20;14.77;;;;;;;17.44;93.09;99397.06;5055250;28;20044;-77
2024/03/31 09:38:29;;;;;;;47.15;13.23;;;;;;;17.57;91.87;99393.59;5055108;28;20064;-78
2024/03/31 09:41:35;;;;;;;36.28;11.18;;;;;;;17.76;90.72;99400.13;5054990;28;20376;-77
2024/03/31 09:44:42;;;;;;;35.85;9.63;;;;;;;17.96;89.65;99401.03;5054197;28;20064;-78
2024/03/31 09:47:49;;;;;;;44.15;12.25;;;;;;;17.83;89.56;99409.97;5055230;28;20055;-76
2024/03/31 09:51:07;;;;;;;40.72;12.10;;;;;;;17.65;90.23;99408.88;5054992;28;20044;-77
2024/03/31 09:54:41;;;;;;;34.50;10.52;;;;;;;17.72;90.77;99412.44;5054909;28;20068;-78
2024/03/31 09:57:50;;;;;;;39.58;11.35;;;;;;;17.83;91.02;99412.69;5054832;28;20048;-78
2024/03/31 10:00:56;;;;;;;32.40;10.13;;;;;;;18.16;90.55;99418.19;5053783;28;20052;-78
2024/03/31 10:04:12;;;;;;;43.38;10.35;;;;;;;18.17;89.58;99392.72;5054801;28;20056;-77
2024/03/31 10:07:18;;;;;;;32.40;9.73;;;;;;;18.01;89.78;99423.81;5054746;28;20052;-76
2024/03/31 10:10:23;;;;;;;34.03;10.50;;;;;;;18.09;88.81;99428.22;5054399;28;20384;-76
2024/03/31 10:13:42;;;;;;;44.28;11.57;;;;;;;17.96;88.82;99418.16;5054499;28;20503;-76
2024/03/31 10:16:47;;;;;;;38.20;10.82;;;;;;;17.93;88.89;99413.13;5053489;28;20056;-78
2024/03/31 10:19:54;;;;;;;29.00;10.48;;;;;;;17.82;90.08;99412.91;5054080;28;20056;-75
2024/03/31 10:22:59;;;;;;;30.70;9.45;;;;;;;18.06;89.62;99412.31;5053813;28;20056;-77
2024/03/31 10:26:04;;;;;;;40.05;10.45;;;;;;;18.36;88.61;99413.63;5054273;28;20052;-77
2024/03/31 10:29:09;;;;;;;33.45;10.55;;;;;;;18.73;87.30;99398.63;5054150;28;20052;-76
2024/03/31 10:32:14;;;;;;;28.83;10.02;;;;;;;19.14;85.03;99395.63;5054091;28;20083;-77
2024/03/31 10:35:18;;;;;;;25.17;8.40;;;;;;;19.04;83.18;99384.34;5054288;28;20162;-77
2024/03/31 10:38:23;;;;;;;27.90;9.55;;;;;;;19.14;83.45;99380.16;5053790;28;20052;-77
2024/03/31 10:41:28;;;;;;;32.38;8.30;;;;;;;19.13;83.48;99372.19;5053905;28;20463;-77
2024/03/31 10:44:32;;;;;;;38.60;9.50;;;;;;;18.87;84.75;99366.81;5053968;28;20067;-77
2024/03/31 10:47:38;;;;;;;30.38;8.55;;;;;;;18.90;85.03;99372.66;5053094;28;20063;-77
2024/03/31 10:50:43;;;;;;;35.17;9.32;;;;;;;18.92;85.01;99358.84;5053671;28;20056;-76
2024/03/31 10:53:47;;;;;;;27.83;8.13;;;;;;;18.88;84.64;99374.78;5053647;28;20051;-76
2024/03/31 10:56:59;;;;;;;36.30;9.88;;;;;;;19.04;84.14;99389.78;5052447;28;20060;-77
2024/03/31 11:00:06;;;;;;;28.75;8.48;;;;;;;19.26;84.24;99389.31;5053658;28;20052;-77
2024/03/31 11:03:10;;;;;;;29.60;9.65;;;;;;;19.37;84.05;99412.34;5052979;28;20060;-77
2024/03/31 11:06:18;;;;;;;26.80;7.88;;;;;;;19.68;82.11;99406.16;5053657;28;20380;-77
2024/03/31 11:09:22;;;;;;;24.65;8.35;;;;;;;20.19;81.23;99411.56;5053683;28;20051;-76
2024/03/31 11:12:27;;;;;;;31.98;7.50;;;;;;;20.30;80.38;99402.69;5053643;28;20072;-77
2024/03/31 11:15:32;;;;;;;34.53;7.75;;;;;;;20.43;80.87;99408.06;5053355;28;20056;-78
2024/03/31 11:18:36;;;;;;;40.30;8.50;;;;;;;20.69;78.46;99400.50;5053529;28;20395;-79
2024/03/31 11:21:43;;;;;;;28.50;8.88;;;;;;;20.59;78.21;99397.44;5053038;28;20051;-77
2024/03/31 11:24:51;;;;;;;31.48;8.05;;;;;;;20.84;77.09;99404.81;5053350;28;20052;-77
2024/03/31 11:27:57;;;;;;;28.85;7.80;;;;;;;21.04;77.00;99410.88;5053392;28;20056;-76
2024/03/31 11:31:02;;;;;;;36.58;10.77;;;;;;;21.10;76.59;99408.13;5053358;28;20495;-78
2024/03/31 11:34:08;;;;;;;41.70;11.25;;;;;;;20.87;77.84;99407.06;5053279;28;20059;-77
2024/03/31 11:37:14;;;;;;;49.72;17.17;;;;;;;20.42;79.86;99398.19;5056640;28;20052;-77
2024/03/31 11:40:19;;;;;;;37.97;12.60;;;;;;;20.37;80.08;99392.59;5057095;28;20056;-76
2024/03/31 11:43:24;;;;;;;52.33;10.88;;;;;;;20.33;81.52;99386.75;5057275;28;20047;-77
2024/03/31 11:46:29;;;;;;;50.88;15.65;;;;;;;20.47;82.20;99377.41;5057255;28;20052;-77
2024/03/31 11:49:35;;;;;;;55.15;16.85;;;;;;;20.20;81.90;99375.91;5057173;28;20498;-77
2024/03/31 11:52:40;;;;;;;56.65;11.88;;;;;;;20.05;82.96;99367.19;5057071;28;20060;-77
2024/03/31 11:55:44;;;;;;;52.88;11.52;;;;;;;20.47;83.84;99384.72;5060572;28;20055;-77
2024/03/31 11:58:49;;;;;;;46.03;10.02;;;;;;;20.23;82.79;99393.72;5076905;28;20040;-78
2024/03/31 12:01:57;;;;;;;49.10;13.00;;;;;;;20.11;81.15;99390.84;5076912;28;20502;-79
2024/03/31 12:05:02;;;;;;;128.75;63.30;;;;;;;20.18;81.58;99385.34;5076870;28;20063;-77
2024/03/31 12:08:06;;;;;;;50.72;14.10;;;;;;;20.30;83.41;99391.78;5076829;28;20049;-77
2024/03/31 12:11:11;;;;;;;47.22;10.73;;;;;;;20.35;81.57;99381.06;5076792;28;20047;-77
2024/03/31 12:14:16;;;;;;;71.15;18.40;;;;;;;20.36;81.65;99380.84;5076772;28;20047;-77
2024/03/31 12:17:21;;;;;;;54.78;12.13;;;;;;;20.62;81.52;99391.53;5076730;28;20375;-77
2024/03/31 12:20:25;;;;;;;47.90;10.60;;;;;;;20.62;80.45;99383.34;5076644;28;20075;-78
2024/03/31 12:23:32;;;;;;;43.35;9.68;;;;;;;20.68;81.34;99387.94;5076592;28;20391;-78
2024/03/31 12:26:38;;;;;;;55.38;9.25;;;;;;;20.59;80.93;99386.53;5076671;28;20047;-78
2024/03/31 12:29:45;;;;;;;44.70;9.57;;;;;;;20.67;80.52;99383.53;5076314;28;20051;-76
2024/03/31 12:32:50;;;;;;;49.35;9.95;;;;;;;20.51;82.29;99388.72;5063938;28;20055;-78
2024/03/31 12:35:59;;;;;;;45.47;10.15;;;;;;;20.47;81.19;99385.56;5076184;28;20363;-78
2024/03/31 12:39:04;;;;;;;54.88;10.07;;;;;;;20.58;82.14;99395.78;5076067;28;20134;-76
2024/03/31 12:42:13;;;;;;;51.58;10.32;;;;;;;20.66;82.46;99381.03;5063257;28;20071;-76
2024/03/31 12:45:21;;;;;;;61.08;9.63;;;;;;;20.84;82.47;99388.44;5075846;28;20052;-76
2024/03/31 12:48:26;;;;;;;52.40;9.90;;;;;;;20.84;82.49;99394.69;5075910;28;20406;-76
2024/03/31 12:51:31;;;;;;;41.30;10.32;;;;;;;20.95;82.92;99395.88;5075830;28;20048;-76
2024/03/31 12:54:35;;;;;;;59.70;9.52;;;;;;;21.08;82.37;99390.31;5075930;28;20071;-76
2024/03/31 12:57:41;;;;;;;43.55;9.95;;;;;;;20.81;81.96;99400.63;5075774;28;20379;-77
2024/03/31 13:00:48;;;;;;;44.00;7.65;;;;;;;21.06;81.35;99400.63;5075294;28;20067;-76
2024/03/31 13:03:53;;;;;;;49.85;8.57;;;;;;;21.10;80.71;99399.94;5075546;28;20383;-77
2024/03/31 13:06:57;;;;;;;43.80;8.85;;;;;;;21.17;80.12;99400.72;5075570;28;20063;-77
2024/03/31 13:10:07;;;;;;;37.47;7.75;;;;;;;21.43;78.33;99423.34;5075428;28;20040;-77
2024/03/31 13:13:14;;;;;;;46.03;9.48;;;;;;;21.36;78.31;99416.03;5051706;28;20056;-76
2024/03/31 13:16:21;;;;;;;42.83;7.50;;;;;;;21.49;77.90;99408.75;5075085;28;20047;-76
2024/03/31 13:19:26;;;;;;;44.20;8.45;;;;;;;21.51;77.37;99406.63;5075356;28;20051;-77
2024/03/31 13:22:30;;;;;;;48.47;8.32;;;;;;;21.72;76.08;99417.09;5062994;28;20055;-76
2024/03/31 13:25:35;;;;;;;40.63;8.25;;;;;;;21.83;75.82;99410.84;5074236;28;20059;-79
2024/03/31 13:28:40;;;;;;;41.33;8.93;;;;;;;21.82;76.24;99414.66;5074752;28;20048;-76
2024/03/31 13:31:44;;;;;;;47.53;8.57;;;;;;;21.49;76.38;99403.28;5074902;28;20387;-76
2024/03/31 13:34:49;;;;;;;45.88;7.85;;;;;;;21.92;72.50;99387.66;5074921;28;20364;-77
2024/03/31 13:37:54;;;;;;;53.15;8.55;;;;;;;21.83;72.97;99378.06;5074864;28;20044;-75
2024/03/31 13:40:59;;;;;;;34.78;7.40;;;;;;;21.63;73.92;99391.97;5074733;28;20059;-76
2024/03/31 13:44:04;;;;;;;36.53;7.32;;;;;;;21.74;70.09;99390.38;5062102;28;20081;-77
2024/03/31 13:47:10;;;;;;;39.40;7.05;;;;;;;21.92;68.51;99391.19;5074501;28;20060;-77
2024/03/31 13:50:14;;;;;;;35.42;6.60;;;;;;;21.81;69.40;99385.66;5075089;28;20044;-77
2024/03/31 13:53:19;;;;;;;38.13;6.75;;;;;;;21.80;70.36;99408.59;5074459;28;20059;-77
2024/03/31 13:56:24;;;;;;;44.83;7.53;;;;;;;21.92;71.29;99387.66;5074159;28;20059;-75
2024/03/31 13:59:29;;;;;;;42.08;8.02;;;;;;;22.00;72.44;99377.22;5073905;28;20111;-77
2024/03/31 14:02:33;;;;;;;39.60;8.20;;;;;;;22.12;71.32;99362.78;5074261;28;20051;-76
2024/03/31 14:05:38;;;;;;;41.70;7.25;;;;;;;22.19;70.57;99360.75;5074295;28;20055;-77
2024/03/31 14:08:42;;;;;;;38.80;7.75;;;;;;;22.03;70.81;99373.19;5074224;28;20091;-78
2024/03/31 14:11:47;;;;;;;41.72;7.00;;;;;;;21.91;71.91;99375.03;5074102;28;20487;-76
2024/03/31 14:14:53;;;;;;;46.80;8.20;;;;;;;22.01;71.27;99372.59;5074009;28;20055;-78
2024/03/31 14:17:59;;;;;;;40.05;6.80;;;;;;;21.88;70.31;99380.97;5073944;28;20047;-76